Time;durP1;ratioP1;P1;durP2;ratioP2;P2;SDS_P1;SDS_P2;PMS_P1;PMS_P2;Temp;Humidity;BMP_temperature;BMP_pressure;BME280_temperature;BME280_humidity;BME280_pressure;Samples;Min_cycle;Max_cycle;Signal;HPM_P1;HPM_P2
2022/11/14 00:00:57;;;;;;;11.17;7.47;;;;;;;4.86;90.96;100527.13;4948820;29;20651;-66
2022/11/14 00:03:24;;;;;;;12.90;7.57;;;;;;;4.92;90.33;100522.13;4947922;28;20253;-65
2022/11/14 00:05:50;;;;;;;12.87;7.87;;;;;;;4.83;90.73;100522.66;4945550;28;20222;-66
2022/11/14 00:08:22;;;;;;;12.33;7.83;;;;;;;4.84;90.67;100516.59;4944181;28;20215;-66
2022/11/14 00:10:50;;;;;;;12.93;7.97;;;;;;;4.83;90.58;100520.03;4950439;28;20237;-66
2022/11/14 00:13:18;;;;;;;11.37;7.17;;;;;;;4.98;89.84;100522.34;4949142;28;20713;-66
2022/11/14 00:15:49;;;;;;;10.83;7.60;;;;;;;4.92;89.91;100514.25;4945776;28;20677;-66
2022/11/14 00:18:16;;;;;;;14.70;7.47;;;;;;;4.98;89.70;100519.72;4949771;28;20264;-66
2022/11/14 00:20:43;;;;;;;14.00;7.27;;;;;;;5.11;88.78;100521.94;4949395;28;20295;-66
2022/11/14 00:23:09;;;;;;;12.77;7.40;;;;;;;5.06;89.19;100520.00;4949167;28;21015;-65
2022/11/14 00:25:35;;;;;;;12.87;7.77;;;;;;;4.99;88.76;100519.78;4945552;28;20199;-66
2022/11/14 00:28:01;;;;;;;13.23;7.63;;;;;;;4.87;89.28;100521.94;4949013;28;20293;-66
2022/11/14 00:30:28;;;;;;;11.73;7.90;;;;;;;4.72;89.72;100519.59;4950204;28;20625;-66
2022/11/14 00:32:54;;;;;;;13.30;7.87;;;;;;;4.81;89.66;100521.72;4948343;28;20247;-66
2022/11/14 00:35:20;;;;;;;17.50;9.67;;;;;;;4.84;89.35;100523.56;4950599;28;20772;-66
2022/11/14 00:37:47;;;;;;;27.67;9.77;;;;;;;4.80;89.57;100526.88;4948059;28;20199;-66
2022/11/14 00:40:13;;;;;;;18.33;9.60;;;;;;;4.79;89.43;100533.84;4949671;28;20234;-65
2022/11/14 00:42:40;;;;;;;15.20;8.80;;;;;;;4.74;89.27;100535.41;4947548;28;20285;-65
2022/11/14 00:45:06;;;;;;;15.70;9.50;;;;;;;4.80;89.10;100525.13;4949842;28;20241;-66
2022/11/14 00:47:32;;;;;;;19.93;10.17;;;;;;;4.79;88.95;100523.34;4944092;28;20289;-65
2022/11/14 00:49:59;;;;;;;16.97;9.77;;;;;;;4.74;88.85;100535.41;4949965;29;20686;-66
2022/11/14 00:52:25;;;;;;;17.53;9.17;;;;;;;4.70;89.34;100531.78;4948588;28;20316;-66
2022/11/14 00:54:51;;;;;;;15.13;9.33;;;;;;;4.63;89.25;100531.47;4950118;28;20318;-66
2022/11/14 00:57:18;;;;;;;15.33;9.53;;;;;;;4.53;89.68;100527.59;4951219;28;20225;-66
2022/11/14 00:59:44;;;;;;;15.40;9.77;;;;;;;4.44;90.25;100526.34;4946033;28;20579;-66
2022/11/14 01:02:11;;;;;;;16.50;9.40;;;;;;;4.32;90.54;100527.63;4947778;28;20245;-66
2022/11/14 01:04:37;;;;;;;14.43;10.00;;;;;;;4.20;90.82;100529.75;4949815;29;20286;-66
2022/11/14 01:07:03;;;;;;;14.70;9.87;;;;;;;4.14;90.73;100531.22;4951420;28;20689;-66
2022/11/14 01:09:30;;;;;;;18.53;10.87;;;;;;;4.01;90.98;100516.75;4950389;28;20638;-66
2022/11/14 01:11:56;;;;;;;11.50;9.43;;;;;;;4.04;91.31;100527.34;4952162;28;20785;-66
2022/11/14 01:14:22;;;;;;;19.90;11.63;;;;;;;4.03;91.69;100528.19;4952637;28;20225;-66
2022/11/14 01:16:49;;;;;;;19.67;12.10;;;;;;;4.07;92.00;100535.34;4947315;28;20335;-65
2022/11/14 01:19:15;;;;;;;20.33;12.53;;;;;;;4.10;91.84;100535.47;4946110;28;20300;-65
2022/11/14 01:21:41;;;;;;;22.20;12.90;;;;;;;4.06;91.88;100533.53;4952052;28;20293;-65
2022/11/14 01:24:07;;;;;;;21.73;12.50;;;;;;;4.00;91.95;100528.03;4954037;29;20289;-65
2022/11/14 01:26:34;;;;;;;20.63;12.47;;;;;;;3.96;91.76;100532.25;4952157;28;20717;-65
2022/11/14 01:29:00;;;;;;;21.50;11.93;;;;;;;3.93;92.21;100520.75;4949687;29;20285;-65
2022/11/14 01:31:26;;;;;;;20.87;12.43;;;;;;;3.95;91.65;100524.31;4952000;28;20293;-65
2022/11/14 01:33:53;;;;;;;22.27;12.73;;;;;;;3.89;92.18;100537.16;4951472;28;20303;-65
2022/11/14 01:36:20;;;;;;;25.23;13.10;;;;;;;3.90;92.18;100524.13;4949693;29;20249;-65
2022/11/14 01:38:51;;;;;;;21.97;13.07;;;;;;;3.90;92.36;100525.84;4949646;28;20742;-66
2022/11/14 01:41:17;;;;;;;28.17;14.63;;;;;;;3.91;92.31;100520.69;4953119;28;20229;-65
2022/11/14 01:43:44;;;;;;;26.40;15.37;;;;;;;3.94;92.45;100514.66;4952904;28;20720;-66
2022/11/14 01:46:22;;;;;;;36.23;15.03;;;;;;;3.97;92.42;100512.19;4950747;28;20342;-66
2022/11/14 01:49:01;;;;;;;71.77;17.50;;;;;;;3.98;92.36;100508.72;4951592;28;20289;-66
2022/11/14 01:51:33;;;;;;;60.97;17.50;;;;;;;3.96;92.61;100490.31;4953802;28;20292;-66
2022/11/14 01:54:04;;;;;;;55.87;18.27;;;;;;;3.93;92.46;100498.06;4948891;28;20320;-66
2022/11/14 01:56:35;;;;;;;46.87;18.17;;;;;;;3.97;92.85;100493.84;4952788;28;20320;-66
2022/11/14 01:59:06;;;;;;;64.73;18.47;;;;;;;3.96;92.86;100486.81;4952559;28;20754;-66
2022/11/14 02:01:37;;;;;;;73.70;19.03;;;;;;;3.94;92.99;100480.63;4951890;28;20288;-66
2022/11/14 02:04:05;;;;;;;77.03;19.53;;;;;;;4.03;93.80;100476.66;4945044;29;20475;-66
2022/11/14 02:06:35;;;;;;;58.50;17.70;;;;;;;4.01;93.80;100466.97;4947476;28;20233;-66
2022/11/14 02:09:04;;;;;;;63.53;18.53;;;;;;;4.01;93.79;100462.63;4951440;28;20237;-66
2022/11/14 02:11:33;;;;;;;116.37;19.83;;;;;;;4.05;93.61;100471.50;4952616;28;20643;-66
2022/11/14 02:14:00;;;;;;;104.70;17.63;;;;;;;4.09;93.58;100466.44;4949606;28;20234;-66
2022/11/14 02:16:27;;;;;;;49.67;16.93;;;;;;;4.04;93.72;100462.72;4948661;28;20236;-65
2022/11/14 02:18:53;;;;;;;52.83;15.90;;;;;;;4.05;93.74;100461.91;4950858;28;20639;-66
2022/11/14 02:21:20;;;;;;;50.80;15.97;;;;;;;4.00;93.99;100462.53;4951726;28;20237;-66
2022/11/14 02:23:46;;;;;;;44.93;16.50;;;;;;;3.98;93.81;100453.69;4950540;28;20672;-66
2022/11/14 02:26:16;;;;;;;44.70;15.77;;;;;;;4.10;93.97;100469.94;4950351;28;20233;-66
2022/11/14 02:28:43;;;;;;;54.93;15.07;;;;;;;4.12;94.22;100470.00;4949040;28;20674;-66
2022/11/14 02:31:09;;;;;;;79.90;16.20;;;;;;;4.14;93.74;100469.22;4949881;29;20289;-65
2022/11/14 02:33:35;;;;;;;47.57;14.30;;;;;;;4.14;93.57;100469.22;4951509;28;21036;-65
2022/11/14 02:36:02;;;;;;;70.60;14.83;;;;;;;4.28;92.76;100459.28;4951772;28;20249;-66
2022/11/14 02:38:28;;;;;;;60.80;15.47;;;;;;;4.24;92.92;100454.75;4951542;28;20678;-65
2022/11/14 02:40:55;;;;;;;61.50;14.37;;;;;;;4.15;93.20;100454.41;4951281;28;20210;-66
2022/11/14 02:43:22;;;;;;;56.93;14.10;;;;;;;4.08;93.51;100450.66;4948410;28;20257;-66
2022/11/14 02:45:48;;;;;;;55.47;14.90;;;;;;;4.09;93.60;100455.06;4950641;28;20285;-66
2022/11/14 02:48:14;;;;;;;42.87;16.13;;;;;;;4.12;93.66;100444.69;4952777;29;20286;-65
2022/11/14 02:50:41;;;;;;;37.70;15.97;;;;;;;4.21;93.75;100452.91;4950667;28;20405;-66
2022/11/14 02:53:08;;;;;;;42.77;17.00;;;;;;;4.21;93.46;100446.78;4949900;28;20262;-66
2022/11/14 02:55:34;;;;;;;38.80;16.63;;;;;;;4.15;93.36;100441.28;4949688;28;20709;-66
2022/11/14 02:58:00;;;;;;;33.50;15.63;;;;;;;4.15;93.93;100436.94;4950508;29;20642;-66
2022/11/14 03:00:27;;;;;;;36.50;16.03;;;;;;;4.15;93.95;100418.59;4948475;28;20238;-66
2022/11/14 03:02:53;;;;;;;39.17;17.97;;;;;;;4.22;93.37;100427.59;4950356;28;20233;-66
2022/11/14 03:05:20;;;;;;;46.57;17.07;;;;;;;4.18;93.91;100421.34;4950121;29;20226;-66
2022/11/14 03:07:46;;;;;;;43.63;16.23;;;;;;;4.20;93.70;100437.13;4949732;28;21684;-66
2022/11/14 03:10:12;;;;;;;32.87;15.97;;;;;;;4.27;93.64;100434.81;4949582;28;20723;-65
2022/11/14 03:12:39;;;;;;;39.00;16.77;;;;;;;4.26;93.85;100422.53;4948699;29;20257;-65
2022/11/14 03:15:06;;;;;;;40.77;15.73;;;;;;;4.24;93.70;100429.44;4949576;28;20230;-66
2022/11/14 03:17:33;;;;;;;32.03;14.73;;;;;;;4.30;93.59;100416.56;4948625;28;20286;-66
2022/11/14 03:20:00;;;;;;;34.30;16.10;;;;;;;4.36;93.61;100415.91;4959998;28;20698;-65
2022/11/14 03:22:26;;;;;;;34.17;16.97;;;;;;;4.40;93.39;100417.81;4951340;28;20218;-66
2022/11/14 03:24:53;;;;;;;37.20;17.20;;;;;;;4.36;93.03;100403.69;4949666;29;20286;-65
2022/11/14 03:27:19;;;;;;;33.03;15.23;;;;;;;4.47;92.41;100398.88;4950039;29;20234;-65
2022/11/14 03:29:49;;;;;;;34.37;16.13;;;;;;;4.41;92.48;100401.28;4949594;28;20230;-66
2022/11/14 03:32:15;;;;;;;34.67;14.83;;;;;;;4.36;92.72;100405.41;4950655;28;20250;-65
2022/11/14 03:34:41;;;;;;;31.97;15.03;;;;;;;4.36;92.62;100403.69;4950516;28;20310;-66
2022/11/14 03:37:08;;;;;;;32.87;16.77;;;;;;;4.35;92.55;100394.03;4949698;28;20249;-65
2022/11/14 03:39:35;;;;;;;34.10;15.13;;;;;;;4.37;92.10;100389.75;4948017;28;20238;-65
2022/11/14 03:42:01;;;;;;;32.80;15.23;;;;;;;4.30;92.07;100397.31;4950941;28;20742;-65
2022/11/14 03:44:28;;;;;;;36.33;14.83;;;;;;;4.25;91.97;100407.63;4950667;28;20241;-65
2022/11/14 03:46:54;;;;;;;31.73;14.17;;;;;;;4.19;92.16;100401.25;4946941;28;20329;-66
2022/11/14 03:49:20;;;;;;;30.80;15.13;;;;;;;4.18;92.25;100394.25;4950778;29;20288;-65
2022/11/14 03:51:47;;;;;;;32.90;14.67;;;;;;;4.14;92.74;100401.09;4949922;28;20233;-65
2022/11/14 03:54:13;;;;;;;29.10;14.43;;;;;;;4.26;92.30;100387.56;4943919;29;20230;-65
2022/11/14 03:56:39;;;;;;;30.63;14.93;;;;;;;4.33;92.05;100390.47;4949380;29;20284;-65
2022/11/14 03:59:06;;;;;;;31.50;14.43;;;;;;;4.25;92.07;100391.00;4950641;29;20281;-65
2022/11/14 04:01:32;;;;;;;30.17;14.73;;;;;;;4.26;92.30;100395.41;4948516;29;20722;-66
2022/11/14 04:03:58;;;;;;;34.17;15.50;;;;;;;4.25;91.96;100383.16;4949506;28;20526;-65
2022/11/14 04:06:25;;;;;;;32.53;14.47;;;;;;;4.15;92.16;100381.91;4949947;28;20249;-65
2022/11/14 04:08:51;;;;;;;29.47;15.50;;;;;;;4.21;92.30;100386.50;4950507;29;20234;-65
2022/11/14 04:11:18;;;;;;;30.33;15.30;;;;;;;4.24;92.28;100384.88;4948296;28;20832;-65
2022/11/14 04:13:44;;;;;;;33.10;15.40;;;;;;;4.20;92.30;100390.84;4948969;28;20218;-66
2022/11/14 04:16:10;;;;;;;31.87;15.60;;;;;;;4.32;91.85;100398.28;4943417;28;22114;-65
2022/11/14 04:18:37;;;;;;;29.57;13.97;;;;;;;4.35;91.90;100398.38;4951398;28;20237;-66
2022/11/14 04:21:03;;;;;;;37.60;15.00;;;;;;;4.28;91.98;100393.75;4948029;28;20241;-65
2022/11/14 04:23:29;;;;;;;29.60;14.80;;;;;;;4.16;91.98;100393.28;4951771;28;20678;-66
2022/11/14 04:25:56;;;;;;;30.17;14.53;;;;;;;4.18;91.97;100387.28;4949051;29;20245;-66
2022/11/14 04:28:22;;;;;;;28.87;14.37;;;;;;;4.13;92.04;100390.56;4950049;28;20198;-66
2022/11/14 04:30:48;;;;;;;30.13;14.63;;;;;;;4.13;92.64;100383.59;4953029;28;20319;-65
2022/11/14 04:33:15;;;;;;;30.93;14.43;;;;;;;4.17;92.26;100385.47;4945943;28;20335;-65
2022/11/14 04:35:41;;;;;;;31.13;14.97;;;;;;;4.14;92.06;100376.63;4945792;28;20276;-66
2022/11/14 04:38:09;;;;;;;29.33;14.27;;;;;;;4.10;91.93;100378.22;4950686;28;20319;-66
2022/11/14 04:40:35;;;;;;;32.77;14.93;;;;;;;4.09;91.96;100372.09;4948728;28;20272;-65
2022/11/14 04:43:01;;;;;;;27.13;13.47;;;;;;;4.06;92.08;100374.59;4949729;28;20335;-65
2022/11/14 04:45:28;;;;;;;25.90;13.83;;;;;;;4.03;92.12;100360.47;4949190;28;20198;-66
2022/11/14 04:47:54;;;;;;;28.73;14.23;;;;;;;4.11;92.06;100380.00;4950044;29;20256;-66
2022/11/14 04:50:20;;;;;;;26.97;13.67;;;;;;;4.11;92.09;100374.78;4948678;28;20276;-65
2022/11/14 04:52:50;;;;;;;25.53;12.87;;;;;;;4.12;91.88;100370.41;4949781;28;20261;-66
2022/11/14 04:55:17;;;;;;;28.10;14.00;;;;;;;4.21;91.19;100368.16;4948053;28;20234;-65
2022/11/14 04:57:43;;;;;;;24.87;12.87;;;;;;;4.23;91.06;100362.13;4947238;28;20257;-66
2022/11/14 05:00:10;;;;;;;26.43;13.93;;;;;;;4.19;91.27;100354.97;4945173;28;20234;-66
2022/11/14 05:02:36;;;;;;;25.53;13.03;;;;;;;4.22;90.95;100360.34;4948571;28;20316;-65
2022/11/14 05:05:03;;;;;;;25.73;12.67;;;;;;;4.24;91.21;100355.16;4950303;29;20482;-65
2022/11/14 05:07:29;;;;;;;24.50;13.43;;;;;;;4.23;90.93;100359.50;4941381;28;20237;-66
2022/11/14 05:09:56;;;;;;;25.83;13.10;;;;;;;4.26;90.94;100349.13;4949780;28;20214;-66
2022/11/14 05:12:22;;;;;;;24.13;12.87;;;;;;;4.32;90.73;100362.47;4949455;28;20305;-66
2022/11/14 05:14:48;;;;;;;24.20;12.83;;;;;;;4.53;89.54;100372.88;4949214;29;20264;-66
2022/11/14 05:17:15;;;;;;;24.47;13.17;;;;;;;4.48;89.44;100358.72;4947208;29;20222;-65
2022/11/14 05:19:41;;;;;;;23.37;12.00;;;;;;;4.44;89.86;100356.81;4950215;28;20289;-66
2022/11/14 05:22:07;;;;;;;24.80;11.97;;;;;;;4.49;89.48;100349.13;4942708;28;20815;-65
2022/11/14 05:24:34;;;;;;;22.07;12.27;;;;;;;4.50;89.42;100358.75;4948612;28;20289;-66
2022/11/14 05:27:00;;;;;;;24.83;13.20;;;;;;;4.48;89.58;100360.44;4947605;28;20289;-66
2022/11/14 05:29:26;;;;;;;22.47;12.70;;;;;;;4.55;88.76;100349.34;4949439;29;20749;-66
2022/11/14 05:31:52;;;;;;;19.93;11.80;;;;;;;4.51;88.93;100361.44;4948098;28;20222;-66
2022/11/14 05:34:19;;;;;;;21.17;12.07;;;;;;;4.59;88.69;100365.22;4950841;28;20293;-65
2022/11/14 05:36:45;;;;;;;22.07;11.90;;;;;;;4.53;88.80;100353.63;4946353;28;20313;-66
2022/11/14 05:39:11;;;;;;;18.87;11.27;;;;;;;4.49;88.56;100355.25;4945387;28;20288;-65
2022/11/14 05:41:38;;;;;;;18.37;11.27;;;;;;;4.49;89.13;100357.88;4951195;28;20248;-66
2022/11/14 05:44:04;;;;;;;22.57;11.40;;;;;;;4.48;89.30;100349.94;4951403;29;20221;-66
2022/11/14 05:46:31;;;;;;;21.23;12.13;;;;;;;4.49;89.82;100349.13;4951831;29;20713;-65
2022/11/14 05:48:58;;;;;;;19.67;11.30;;;;;;;4.50;90.02;100343.94;4952661;28;20230;-66
2022/11/14 05:51:24;;;;;;;24.37;11.37;;;;;;;4.66;88.82;100348.00;4953202;28;20206;-66
2022/11/14 05:53:50;;;;;;;23.73;12.27;;;;;;;4.68;88.27;100347.19;4950942;28;20316;-64
2022/11/14 05:56:17;;;;;;;22.70;11.50;;;;;;;4.74;87.66;100343.91;4946290;29;20304;-64
2022/11/14 05:58:43;;;;;;;20.57;11.73;;;;;;;4.82;87.63;100339.84;4952498;28;20226;-64
2022/11/14 06:01:12;;;;;;;23.57;11.37;;;;;;;4.82;86.97;100337.22;4948713;28;20771;-64
2022/11/14 06:03:42;;;;;;;18.53;11.23;;;;;;;4.76;87.34;100330.84;4950339;28;20598;-65
2022/11/14 06:06:12;;;;;;;16.93;10.13;;;;;;;4.70;88.03;100335.03;4953158;28;20218;-65
2022/11/14 06:08:39;;;;;;;19.40;11.43;;;;;;;4.78;88.12;100329.16;4952561;28;20245;-64
2022/11/14 06:11:08;;;;;;;20.20;11.27;;;;;;;4.72;87.97;100329.84;4951271;29;20226;-64
2022/11/14 06:13:35;;;;;;;29.67;11.87;;;;;;;4.68;88.56;100330.56;4953149;28;20233;-64
2022/11/14 06:16:06;;;;;;;31.03;12.70;;;;;;;4.65;88.68;100336.59;4947589;29;20221;-64
2022/11/14 06:18:34;;;;;;;29.37;11.30;;;;;;;4.66;88.64;100335.75;4951503;28;20285;-64
2022/11/14 06:21:14;;;;;;;28.17;11.13;;;;;;;4.70;88.75;100347.25;4950667;28;20230;-63
2022/11/14 06:23:41;;;;;;;22.33;11.40;;;;;;;4.70;88.87;100342.91;4953579;28;20647;-63
2022/11/14 06:26:31;;;;;;;24.93;12.23;;;;;;;4.73;88.81;100349.97;4950275;28;20293;-63
2022/11/14 06:28:59;;;;;;;20.80;11.20;;;;;;;4.80;88.27;100345.84;4944141;29;20707;-63
2022/11/14 06:31:26;;;;;;;22.77;11.23;;;;;;;4.79;88.26;100346.69;4945162;28;20293;-63
2022/11/14 06:33:52;;;;;;;24.97;11.83;;;;;;;4.77;88.80;100341.38;4943733;28;20254;-63
2022/11/14 06:36:19;;;;;;;21.90;12.17;;;;;;;4.79;88.53;100347.56;4941263;28;20306;-63
2022/11/14 06:38:45;;;;;;;21.07;11.93;;;;;;;4.81;88.84;100343.31;4946855;29;20235;-63
2022/11/14 06:41:18;;;;;;;21.90;12.53;;;;;;;4.91;88.57;100344.53;4945203;28;20223;-63
2022/11/14 06:43:47;;;;;;;27.13;14.47;;;;;;;4.89;88.52;100343.56;4944424;28;20254;-64
2022/11/14 06:46:17;;;;;;;22.40;13.37;;;;;;;4.93;88.38;100345.47;4938006;28;20297;-64
2022/11/14 06:48:44;;;;;;;28.13;13.13;;;;;;;4.97;88.03;100342.09;4941480;28;20680;-63
2022/11/14 06:51:13;;;;;;;23.97;12.90;;;;;;;4.95;88.17;100342.06;4946276;28;20203;-62
2022/11/14 06:53:40;;;;;;;21.50;11.53;;;;;;;4.93;88.25;100334.97;4949881;28;20339;-63
2022/11/14 06:56:09;;;;;;;22.90;12.50;;;;;;;4.92;88.29;100336.69;4949217;28;20702;-63
2022/11/14 06:58:41;;;;;;;20.57;12.53;;;;;;;4.98;88.23;100334.28;4944640;28;20293;-63
2022/11/14 07:01:16;;;;;;;20.23;12.80;;;;;;;5.07;87.91;100335.44;4948527;28;20293;-63
2022/11/14 07:03:44;;;;;;;18.93;12.10;;;;;;;5.12;87.13;100324.25;4946864;28;20249;-62
2022/11/14 07:06:14;;;;;;;22.00;11.70;;;;;;;5.16;87.30;100323.50;4945599;28;20230;-63
2022/11/14 07:08:40;;;;;;;25.87;13.17;;;;;;;5.18;87.42;100324.44;4946282;28;20607;-63
2022/11/14 07:11:21;;;;;;;19.67;11.80;;;;;;;5.23;87.01;100320.28;4952427;28;20295;-63
2022/11/14 07:13:58;;;;;;;23.50;12.77;;;;;;;5.32;86.57;100322.31;4948318;28;20317;-63
2022/11/14 07:16:28;;;;;;;21.43;13.30;;;;;;;5.28;86.89;100331.81;4950684;29;20668;-63
2022/11/14 07:18:58;;;;;;;23.70;13.33;;;;;;;5.37;86.52;100312.84;4951566;28;20225;-64
2022/11/14 07:21:26;;;;;;;24.50;12.10;;;;;;;5.45;86.43;100313.97;4948176;29;20202;-64
2022/11/14 07:23:53;;;;;;;22.90;13.17;;;;;;;5.66;85.52;100304.19;4947119;28;20679;-64
2022/11/14 07:26:20;;;;;;;22.37;13.07;;;;;;;5.61;85.80;100323.28;4943141;28;20206;-64
2022/11/14 07:28:46;;;;;;;24.43;13.40;;;;;;;5.62;86.49;100328.56;4944251;28;20226;-65
2022/11/14 07:31:19;;;;;;;23.93;13.53;;;;;;;5.68;85.97;100316.47;4942657;28;20203;-64
2022/11/14 07:33:46;;;;;;;21.93;13.73;;;;;;;5.72;85.46;100337.63;4942236;28;20785;-64
2022/11/14 07:36:13;;;;;;;23.03;14.30;;;;;;;5.71;85.71;100327.97;4952217;28;20730;-65
2022/11/14 07:38:40;;;;;;;25.30;14.07;;;;;;;5.72;85.39;100326.22;4951537;28;20239;-63
2022/11/14 07:41:09;;;;;;;23.27;13.27;;;;;;;5.77;85.37;100329.88;4952870;28;20227;-65
2022/11/14 07:43:35;;;;;;;24.83;13.13;;;;;;;5.77;84.55;100328.16;4950695;28;20319;-64
2022/11/14 07:46:06;;;;;;;20.87;12.93;;;;;;;5.79;84.69;100334.34;4951305;28;20290;-64
2022/11/14 07:48:33;;;;;;;20.97;13.07;;;;;;;5.77;84.87;100338.66;4951964;28;20282;-65
2022/11/14 07:51:02;;;;;;;26.57;13.77;;;;;;;5.86;84.97;100345.94;4952205;28;20287;-64
2022/11/14 07:53:28;;;;;;;23.90;13.03;;;;;;;5.87;84.50;100340.72;4951975;28;20798;-64
2022/11/14 07:55:55;;;;;;;25.10;13.13;;;;;;;5.93;83.87;100346.19;4950823;28;20226;-64
2022/11/14 07:58:22;;;;;;;22.10;13.10;;;;;;;6.00;83.30;100344.66;4951746;28;20251;-64
2022/11/14 08:00:48;;;;;;;24.27;13.57;;;;;;;6.02;83.28;100347.38;4952175;28;20232;-65
2022/11/14 08:03:15;;;;;;;23.73;13.33;;;;;;;5.98;83.20;100320.06;4950653;28;20303;-64
2022/11/14 08:05:41;;;;;;;28.53;13.47;;;;;;;6.21;82.84;100339.16;4950750;28;20204;-64
2022/11/14 08:08:08;;;;;;;23.67;13.27;;;;;;;6.28;82.64;100346.38;4952129;29;20254;-64
2022/11/14 08:10:34;;;;;;;25.07;14.20;;;;;;;6.33;82.46;100346.53;4952323;28;20290;-64
2022/11/14 08:13:04;;;;;;;24.30;14.33;;;;;;;6.42;82.13;100342.44;4951229;28;20315;-64
2022/11/14 08:15:51;;;;;;;20.60;12.93;;;;;;;6.59;81.26;100332.41;4951601;28;20202;-64
2022/11/14 08:18:17;;;;;;;22.97;13.10;;;;;;;6.71;80.73;100327.47;4951444;29;20785;-64
2022/11/14 08:20:44;;;;;;;21.03;12.77;;;;;;;6.78;80.04;100336.41;4951921;28;20283;-65
2022/11/14 08:23:11;;;;;;;21.97;13.27;;;;;;;6.83;80.11;100338.34;4950538;28;20615;-64
2022/11/14 08:25:37;;;;;;;24.03;12.77;;;;;;;6.90;79.87;100337.66;4950625;28;20284;-65
2022/11/14 08:28:03;;;;;;;22.23;12.87;;;;;;;6.86;79.29;100316.50;4951381;28;20227;-65
2022/11/14 08:30:30;;;;;;;21.63;12.83;;;;;;;6.99;78.69;100349.28;4951900;29;20201;-64
2022/11/14 08:33:00;;;;;;;23.20;13.27;;;;;;;6.89;79.15;100345.53;4951272;28;20249;-64
2022/11/14 08:35:26;;;;;;;23.50;13.13;;;;;;;6.83;79.86;100354.16;4947292;29;20235;-64
2022/11/14 08:37:53;;;;;;;23.70;13.70;;;;;;;6.80;79.85;100340.88;4951233;28;20256;-64
2022/11/14 08:40:19;;;;;;;25.57;13.80;;;;;;;6.88;79.78;100335.84;4950563;29;20232;-64
2022/11/14 08:42:45;;;;;;;25.23;15.00;;;;;;;6.97;79.43;100345.72;4951300;28;20668;-64
2022/11/14 08:45:12;;;;;;;32.07;15.73;;;;;;;6.89;78.79;100351.69;4948686;28;20250;-64
2022/11/14 08:47:38;;;;;;;28.37;15.20;;;;;;;6.81;79.85;100347.94;4950859;28;20585;-64
2022/11/14 08:50:04;;;;;;;25.07;14.07;;;;;;;6.85;79.83;100354.19;4950599;28;20285;-65
2022/11/14 08:52:31;;;;;;;26.47;14.73;;;;;;;6.87;79.87;100344.59;4951576;28;20258;-65
2022/11/14 08:54:57;;;;;;;30.53;15.33;;;;;;;6.78;80.23;100346.94;4951560;28;20429;-64
2022/11/14 08:57:23;;;;;;;25.33;15.07;;;;;;;6.77;80.70;100348.69;4948957;29;20247;-64
2022/11/14 08:59:50;;;;;;;28.50;15.30;;;;;;;6.80;80.21;100343.50;4946839;28;20253;-64
2022/11/14 09:02:18;;;;;;;24.87;14.93;;;;;;;6.79;80.56;100340.84;4951429;28;20306;-64
2022/11/14 09:04:45;;;;;;;29.37;14.50;;;;;;;6.88;80.54;100339.38;4947291;28;20258;-64
2022/11/14 09:07:11;;;;;;;28.03;15.07;;;;;;;6.91;80.02;100351.72;4941562;28;20240;-64
2022/11/14 09:09:38;;;;;;;25.47;14.63;;;;;;;6.94;80.01;100346.53;4951525;28;20208;-64
2022/11/14 09:12:04;;;;;;;27.43;14.83;;;;;;;6.93;80.23;100368.44;4949422;28;20316;-64
2022/11/14 09:14:31;;;;;;;28.03;14.23;;;;;;;6.99;79.94;100349.28;4950977;28;20237;-65
2022/11/14 09:16:57;;;;;;;27.73;14.97;;;;;;;7.01;80.35;100361.66;4953295;28;20261;-65
2022/11/14 09:19:30;;;;;;;26.73;14.30;;;;;;;6.95;80.62;100369.38;4948155;29;20212;-64
2022/11/14 09:21:57;;;;;;;27.67;15.03;;;;;;;6.91;81.02;100363.13;4954823;29;20307;-64
2022/11/14 09:24:23;;;;;;;29.40;15.17;;;;;;;6.98;80.80;100364.19;4951720;28;20312;-64
2022/11/14 09:26:50;;;;;;;31.23;15.67;;;;;;;7.01;81.02;100361.66;4955157;28;20242;-64
2022/11/14 09:29:22;;;;;;;26.37;14.43;;;;;;;7.09;81.05;100359.22;4954972;28;20200;-64
2022/11/14 09:31:50;;;;;;;25.53;14.83;;;;;;;7.20;80.28;100341.94;4954666;28;20562;-64
2022/11/14 09:34:17;;;;;;;26.73;14.07;;;;;;;7.33;79.97;100335.28;4952578;28;20233;-64
2022/11/14 09:36:43;;;;;;;26.37;14.07;;;;;;;7.41;79.29;100336.34;4954517;28;20232;-64
2022/11/14 09:39:09;;;;;;;26.23;14.60;;;;;;;7.56;78.83;100344.63;4954087;28;20644;-64
2022/11/14 09:42:07;;;;;;;26.67;14.83;;;;;;;7.70;78.21;100331.81;4946172;28;20231;-64
2022/11/14 09:44:55;;;;;;;30.93;15.47;;;;;;;7.72;78.12;100340.63;4954681;28;20201;-65
2022/11/14 09:47:27;;;;;;;29.67;15.53;;;;;;;7.84;77.58;100331.25;4954061;28;20232;-65
2022/11/14 09:49:59;;;;;;;24.00;13.80;;;;;;;7.76;77.78;100329.31;4954377;28;20624;-64
2022/11/14 09:52:45;;;;;;;23.93;13.73;;;;;;;8.01;76.41;100328.13;4953597;28;20261;-65
2022/11/14 09:55:16;;;;;;;26.63;13.50;;;;;;;8.04;75.94;100334.38;4950878;29;20210;-65
2022/11/14 09:57:43;;;;;;;25.83;13.97;;;;;;;8.20;75.58;100324.16;4953863;28;20241;-65
2022/11/14 10:00:14;;;;;;;28.10;13.97;;;;;;;8.44;75.00;100325.59;4953133;28;20641;-64
2022/11/14 10:03:21;;;;;;;25.50;13.67;;;;;;;8.38;74.29;100314.91;4954101;28;20259;-65
2022/11/14 10:06:12;;;;;;;24.43;12.97;;;;;;;8.48;74.09;100322.16;4875482;29;20288;-64
2022/11/14 10:08:52;;;;;;;20.53;12.43;;;;;;;8.48;74.35;100323.91;4947477;29;20194;-65
2022/11/14 10:11:28;;;;;;;25.17;13.47;;;;;;;8.48;74.45;100330.09;4951982;28;20276;-64
2022/11/14 10:14:15;;;;;;;25.80;13.47;;;;;;;8.46;74.79;100337.09;4953853;28;20301;-64
2022/11/14 10:17:04;;;;;;;22.67;13.63;;;;;;;8.64;74.58;100327.75;4948928;28;20290;-65
2022/11/14 10:19:59;;;;;;;23.33;13.30;;;;;;;8.69;73.67;100321.69;4950057;28;20602;-64
2022/11/14 10:22:38;;;;;;;23.17;13.37;;;;;;;8.75;73.43;100313.00;4952142;28;20287;-65
2022/11/14 10:25:29;;;;;;;25.27;13.77;;;;;;;9.06;72.39;100306.53;4950675;29;20290;-64
2022/11/14 10:28:23;;;;;;;23.03;13.37;;;;;;;9.37;71.58;100315.91;4952812;28;20635;-65
2022/11/14 10:30:52;;;;;;;24.33;13.33;;;;;;;9.43;71.28;100314.25;4946148;29;20220;-64
2022/11/14 10:33:35;;;;;;;21.87;13.23;;;;;;;9.39;70.96;100319.47;4953802;28;20272;-64
2022/11/14 10:36:15;;;;;;;25.13;12.97;;;;;;;9.57;70.70;100318.88;4949630;29;20232;-65
2022/11/14 10:38:54;;;;;;;21.30;13.37;;;;;;;9.67;69.83;100323.47;4953335;28;20265;-64
2022/11/14 10:41:24;;;;;;;24.97;13.60;;;;;;;9.62;69.54;100314.56;4952216;28;20235;-64
2022/11/14 10:44:17;;;;;;;22.20;12.87;;;;;;;9.48;70.18;100303.75;4951099;28;20210;-64
2022/11/14 10:46:54;;;;;;;21.57;12.57;;;;;;;9.59;70.32;100302.16;4950385;28;20222;-64
2022/11/14 10:49:23;;;;;;;29.77;13.90;;;;;;;9.49;70.27;100296.72;4951378;28;20212;-64
2022/11/14 10:51:54;;;;;;;19.87;12.63;;;;;;;9.44;71.27;100288.72;4953092;28;20282;-65
2022/11/14 10:54:27;;;;;;;23.83;12.93;;;;;;;9.50;71.43;100286.16;4953274;28;20247;-64
2022/11/14 10:56:54;;;;;;;21.77;13.77;;;;;;;9.79;70.55;100275.16;4948852;28;20249;-65
2022/11/14 10:59:21;;;;;;;23.10;12.67;;;;;;;9.95;69.64;100267.44;4952996;28;20254;-64
2022/11/14 11:01:52;;;;;;;25.27;12.63;;;;;;;9.97;69.43;100272.75;4952974;28;20238;-64
2022/11/14 11:04:30;;;;;;;24.17;12.57;;;;;;;9.97;69.07;100262.16;4952876;28;20196;-64
2022/11/14 11:12:51;;;;;;;20.73;12.70;;;;;;;9.23;72.26;100252.25;4951552;28;20350;-64
2022/11/14 11:15:19;;;;;;;23.33;12.67;;;;;;;9.25;72.13;100245.25;4948430;28;20651;-64
2022/11/14 11:18:02;;;;;;;21.73;13.23;;;;;;;9.23;71.84;100244.34;4951025;29;20246;-65
2022/11/14 11:20:40;;;;;;;23.57;12.37;;;;;;;9.25;72.52;100239.97;4952585;29;20287;-64
2022/11/14 11:23:09;;;;;;;21.13;12.67;;;;;;;9.30;71.80;100234.75;4952215;28;20246;-64
2022/11/14 11:25:38;;;;;;;25.27;12.77;;;;;;;9.30;72.63;100230.34;4944819;29;20310;-65
2022/11/14 11:28:19;;;;;;;21.90;12.97;;;;;;;9.41;72.35;100227.88;4947548;28;20254;-64
2022/11/14 11:30:57;;;;;;;21.20;12.47;;;;;;;9.49;71.69;100225.34;4950554;28;20610;-64